Time;durP1;ratioP1;P1;durP2;ratioP2;P2;SDS_P1;SDS_P2;PMS_P1;PMS_P2;Temp;Humidity;BMP_temperature;BMP_pressure;BME280_temperature;BME280_humidity;BME280_pressure;Samples;Min_cycle;Max_cycle;Signal;HPM_P1;HPM_P2
2023/06/13 00:00:11;;;;;;;4.57;3.60;;;;;;;16.11;43.80;99017.47;5045344;28;20053;-69
2023/06/13 00:02:38;;;;;;;4.22;3.28;;;;;;;16.06;44.13;99021.50;5045351;28;20107;-69
2023/06/13 00:05:10;;;;;;;5.55;3.33;;;;;;;16.05;44.24;99012.63;5045318;28;20033;-69
2023/06/13 00:07:37;;;;;;;5.53;3.58;;;;;;;16.03;44.19;99017.25;5046121;28;20056;-69
2023/06/13 00:10:05;;;;;;;5.18;3.63;;;;;;;15.99;44.47;99016.66;5049457;28;20045;-69
2023/06/13 00:12:34;;;;;;;5.07;3.13;;;;;;;15.96;44.84;99016.06;5049698;28;20053;-69
2023/06/13 00:15:01;;;;;;;7.30;3.78;;;;;;;15.96;44.66;99018.72;5049308;28;20059;-69
2023/06/13 00:17:31;;;;;;;5.50;3.38;;;;;;;15.91;44.69;99008.44;5049288;28;20051;-68
2023/06/13 00:19:59;;;;;;;5.18;3.17;;;;;;;15.93;44.71;99003.81;5049546;28;20075;-69
2023/06/13 00:22:28;;;;;;;4.20;3.17;;;;;;;15.93;45.03;99008.28;5049257;28;20092;-69
2023/06/13 00:24:55;;;;;;;4.20;3.40;;;;;;;15.90;45.05;98998.72;5049180;28;20037;-69
2023/06/13 00:27:21;;;;;;;5.05;3.13;;;;;;;15.86;45.17;99002.63;5049662;28;20052;-69
2023/06/13 00:29:48;;;;;;;8.13;3.80;;;;;;;15.85;45.11;99000.06;5048230;28;20042;-69
2023/06/13 00:32:15;;;;;;;5.60;3.42;;;;;;;15.85;45.26;99000.91;5049320;28;20045;-69
2023/06/13 00:34:43;;;;;;;6.28;3.88;;;;;;;15.84;44.98;98998.38;5049168;28;20197;-69
2023/06/13 00:37:12;;;;;;;4.88;3.25;;;;;;;15.83;44.61;98999.34;5048955;28;20071;-69
2023/06/13 00:39:41;;;;;;;4.75;3.47;;;;;;;15.78;45.57;98993.53;5048724;28;20065;-69
2023/06/13 00:42:08;;;;;;;10.02;3.00;;;;;;;15.75;45.46;98996.44;5049385;28;20042;-69
2023/06/13 00:44:35;;;;;;;7.68;3.20;;;;;;;15.63;45.40;98980.41;5048807;28;20045;-69
2023/06/13 00:47:03;;;;;;;4.72;3.22;;;;;;;15.65;44.77;98991.88;5049009;28;20041;-69
2023/06/13 00:49:30;;;;;;;4.75;2.90;;;;;;;15.64;44.84;98990.13;5049243;28;20045;-69
2023/06/13 00:52:01;;;;;;;8.32;3.45;;;;;;;15.03;44.92;98907.00;5047791;28;20045;-69
2023/06/13 00:54:29;;;;;;;4.40;3.30;;;;;;;15.61;45.00;98992.22;5048518;28;20037;-69
2023/06/13 00:56:57;;;;;;;4.43;3.33;;;;;;;15.57;44.92;98994.28;5048840;28;20037;-69
2023/06/13 00:59:24;;;;;;;4.22;3.10;;;;;;;15.55;45.39;98988.22;5048520;28;20103;-69
2023/06/13 01:01:52;;;;;;;3.92;3.10;;;;;;;15.54;45.31;98986.50;5048489;28;20041;-70
2023/06/13 01:04:19;;;;;;;8.60;3.45;;;;;;;15.49;45.56;98987.88;5048702;28;20037;-69
2023/06/13 01:06:46;;;;;;;5.82;3.30;;;;;;;15.48;45.45;98983.50;5048671;28;20364;-69
2023/06/13 01:09:16;;;;;;;5.03;3.38;;;;;;;15.50;45.69;98978.88;5048885;28;20054;-69
2023/06/13 01:11:57;;;;;;;6.40;3.17;;;;;;;15.51;45.29;98976.09;5048678;28;20045;-69
2023/06/13 01:14:36;;;;;;;4.57;3.53;;;;;;;15.48;45.58;98973.66;5047570;28;20086;-69
2023/06/13 01:17:12;;;;;;;4.47;3.38;;;;;;;15.36;45.82;98986.19;5048458;28;20056;-69
2023/06/13 01:19:41;;;;;;;3.38;2.55;;;;;;;15.37;45.97;98985.22;5047067;28;20049;-69
2023/06/13 01:22:14;;;;;;;5.63;3.22;;;;;;;15.29;46.21;98984.97;5047256;28;20049;-69
2023/06/13 01:24:53;;;;;;;4.80;3.33;;;;;;;15.30;46.07;98983.16;5048318;28;20075;-69
2023/06/13 01:27:22;;;;;;;3.97;3.08;;;;;;;15.27;45.89;98984.25;5047456;28;20259;-69
2023/06/13 01:29:52;;;;;;;5.05;3.28;;;;;;;15.21;45.95;98975.88;5047953;28;20045;-69
2023/06/13 01:32:21;;;;;;;4.30;3.20;;;;;;;15.18;46.25;98978.81;5047859;28;20041;-69
2023/06/13 01:34:48;;;;;;;6.00;3.33;;;;;;;15.18;46.12;98984.13;5046940;28;20056;-69
2023/06/13 01:37:15;;;;;;;10.57;3.50;;;;;;;15.14;46.62;98983.53;5048225;28;20055;-69
2023/06/13 01:39:42;;;;;;;4.60;3.60;;;;;;;15.14;46.96;98978.19;5047665;28;20245;-69
2023/06/13 01:42:09;;;;;;;4.40;3.25;;;;;;;15.08;46.97;98971.53;5048089;28;20053;-69
2023/06/13 01:44:38;;;;;;;5.28;3.05;;;;;;;15.18;45.98;98966.31;5046920;28;20041;-69
2023/06/13 01:47:17;;;;;;;4.47;2.72;;;;;;;15.20;46.08;98971.53;5047916;28;20045;-69
2023/06/13 01:49:51;;;;;;;5.25;3.58;;;;;;;15.06;46.94;98973.47;5047853;28;20053;-69
2023/06/13 01:52:25;;;;;;;4.25;3.17;;;;;;;15.03;47.39;98973.72;5047849;28;20045;-69
2023/06/13 01:54:57;;;;;;;5.90;3.72;;;;;;;14.99;47.13;98966.94;5047647;28;20335;-70
2023/06/13 01:57:30;;;;;;;6.10;3.97;;;;;;;14.97;48.05;98971.53;5048533;28;20037;-69
2023/06/13 01:59:59;;;;;;;5.80;3.67;;;;;;;14.92;47.81;98970.19;5047437;28;20048;-68
2023/06/13 02:02:27;;;;;;;5.32;3.95;;;;;;;14.91;47.95;98969.34;5047080;28;20037;-69
2023/06/13 02:04:55;;;;;;;4.82;3.33;;;;;;;14.27;48.29;98878.34;5047331;28;20037;-69
2023/06/13 02:07:22;;;;;;;3.90;3.13;;;;;;;14.88;48.41;98971.41;5047870;28;20108;-69
2023/06/13 02:09:49;;;;;;;5.78;3.55;;;;;;;14.83;48.56;98954.91;5046385;28;20071;-69
2023/06/13 02:12:16;;;;;;;5.82;3.25;;;;;;;14.83;48.45;98963.78;5047695;28;20048;-68
2023/06/13 02:14:43;;;;;;;7.53;3.63;;;;;;;14.83;48.06;98963.78;5046195;28;20053;-69
2023/06/13 02:17:12;;;;;;;4.32;3.40;;;;;;;14.84;47.76;98965.47;5047323;28;20225;-68
2023/06/13 02:19:38;;;;;;;6.75;3.75;;;;;;;14.80;47.76;98957.81;5047049;28;20304;-69
2023/06/13 02:22:06;;;;;;;4.05;2.95;;;;;;;14.77;47.90;98963.41;5047513;28;20059;-69
2023/06/13 02:24:33;;;;;;;4.40;3.40;;;;;;;14.52;48.77;98938.59;5047159;28;20050;-69
2023/06/13 02:27:00;;;;;;;5.20;3.25;;;;;;;14.62;49.27;98968.13;5046877;28;20041;-68
2023/06/13 02:29:27;;;;;;;4.40;3.20;;;;;;;14.56;48.91;98960.53;5047107;28;20063;-69
2023/06/13 02:31:53;;;;;;;5.05;4.13;;;;;;;14.51;49.14;98957.38;5047150;28;20038;-69
2023/06/13 02:34:21;;;;;;;6.78;4.97;;;;;;;14.48;49.62;98957.59;5047209;28;20037;-69
2023/06/13 02:36:48;;;;;;;6.60;4.40;;;;;;;14.54;49.32;98957.13;5046812;28;20041;-69
2023/06/13 02:39:15;;;;;;;4.28;3.10;;;;;;;14.50;49.63;98961.00;5046786;28;20057;-69
2023/06/13 02:41:41;;;;;;;6.45;3.42;;;;;;;14.41;50.05;98967.91;5047104;28;20175;-69
2023/06/13 02:44:08;;;;;;;4.43;3.45;;;;;;;14.40;49.96;98967.03;5045684;28;20209;-69
2023/06/13 02:46:35;;;;;;;4.38;3.30;;;;;;;14.39;50.08;98973.34;5047048;28;20033;-69
2023/06/13 02:49:02;;;;;;;5.13;3.90;;;;;;;14.32;50.35;98963.28;5046980;28;20041;-69
2023/06/13 02:51:30;;;;;;;5.78;3.78;;;;;;;14.29;50.30;98966.16;5046998;28;20068;-69
2023/06/13 02:53:56;;;;;;;4.32;2.90;;;;;;;14.27;50.42;98960.09;5046894;28;20170;-69
2023/06/13 02:56:23;;;;;;;5.80;2.92;;;;;;;14.28;50.44;98957.31;5046497;28;20300;-69
2023/06/13 02:58:50;;;;;;;4.40;3.30;;;;;;;14.28;50.33;98954.66;5046231;28;20050;-69
2023/06/13 03:01:17;;;;;;;4.78;3.20;;;;;;;14.21;50.66;98960.56;5046760;28;20041;-69
2023/06/13 03:03:47;;;;;;;6.20;3.80;;;;;;;14.19;50.55;98958.03;5046143;28;20041;-69
2023/06/13 03:06:17;;;;;;;4.38;3.60;;;;;;;14.18;50.72;98956.34;5046677;28;20286;-69
2023/06/13 03:08:45;;;;;;;5.57;3.70;;;;;;;14.16;51.07;98955.59;5046121;28;20041;-69
2023/06/13 03:11:13;;;;;;;3.70;3.13;;;;;;;14.12;50.77;98948.81;5046576;28;20046;-68
2023/06/13 03:13:39;;;;;;;6.13;3.22;;;;;;;14.10;50.76;98956.91;5046454;28;20056;-69
2023/06/13 03:16:06;;;;;;;5.55;3.58;;;;;;;14.11;50.27;98947.09;5045874;28;20044;-69
2023/06/13 03:18:34;;;;;;;6.90;4.10;;;;;;;14.10;50.10;98948.91;5045035;28;20045;-69
2023/06/13 03:21:01;;;;;;;5.57;3.42;;;;;;;14.13;50.03;98947.84;5045775;28;20316;-69
2023/06/13 03:23:27;;;;;;;5.60;3.20;;;;;;;14.11;49.65;98952.44;5046118;28;20099;-69
2023/06/13 03:25:55;;;;;;;3.92;3.17;;;;;;;14.16;49.74;98952.94;5046060;28;20225;-69
2023/06/13 03:28:22;;;;;;;4.30;3.30;;;;;;;14.12;49.93;98949.66;5045755;28;20368;-69
2023/06/13 03:30:51;;;;;;;5.78;3.35;;;;;;;14.12;50.38;98954.13;5046240;28;20033;-69
2023/06/13 03:33:18;;;;;;;4.03;3.22;;;;;;;14.06;50.47;98949.28;5045943;28;20237;-69
2023/06/13 03:35:45;;;;;;;5.72;3.53;;;;;;;14.04;50.68;98954.72;5045678;28;20103;-69
2023/06/13 03:38:12;;;;;;;5.70;3.58;;;;;;;14.04;51.22;98957.38;5045474;28;20057;-69
2023/06/13 03:40:38;;;;;;;5.20;4.03;;;;;;;14.02;51.21;98958.47;5045633;28;20040;-69
2023/06/13 03:43:06;;;;;;;5.72;3.33;;;;;;;13.92;51.00;98933.47;5045216;28;20301;-69
2023/06/13 03:45:33;;;;;;;5.57;3.40;;;;;;;14.03;51.16;98953.00;5044692;28;20030;-69
2023/06/13 03:48:00;;;;;;;6.28;4.10;;;;;;;14.01;51.89;98957.59;5046067;28;20037;-68
2023/06/13 03:50:27;;;;;;;4.35;3.58;;;;;;;14.04;52.24;98953.88;5045446;28;20053;-69
2023/06/13 03:52:53;;;;;;;7.03;3.40;;;;;;;14.05;52.15;98955.56;5045478;28;20072;-68
2023/06/13 03:55:21;;;;;;;4.47;3.20;;;;;;;14.04;52.50;98953.88;5045887;28;20046;-69
2023/06/13 03:57:47;;;;;;;6.20;4.43;;;;;;;14.04;52.46;98954.72;5045452;28;20124;-69
2023/06/13 04:00:17;;;;;;;6.97;4.00;;;;;;;13.59;52.58;98900.41;5045958;28;20051;-69
2023/06/13 04:02:44;;;;;;;5.78;3.70;;;;;;;14.05;52.79;98960.88;5045345;28;20037;-69
2023/06/13 04:05:12;;;;;;;6.40;4.90;;;;;;;13.75;52.85;98918.75;5044508;28;20043;-69
2023/06/13 04:07:39;;;;;;;9.30;4.40;;;;;;;14.07;52.03;98966.94;5045861;28;20037;-69
2023/06/13 04:10:06;;;;;;;5.60;4.38;;;;;;;14.10;51.49;98961.41;5045587;28;20053;-69
2023/06/13 04:12:33;;;;;;;5.57;3.45;;;;;;;14.11;51.14;98961.28;5045781;28;20170;-69
2023/06/13 04:14:59;;;;;;;4.55;3.42;;;;;;;14.07;51.44;98965.13;5045709;28;20041;-69
2023/06/13 04:17:29;;;;;;;4.85;3.95;;;;;;;14.12;51.13;98962.13;5044337;28;20048;-69
2023/06/13 04:19:55;;;;;;;4.25;3.78;;;;;;;14.07;51.23;98962.47;5045234;28;20050;-69
2023/06/13 04:22:22;;;;;;;5.57;4.00;;;;;;;14.10;50.97;98961.41;5045180;28;20240;-69
2023/06/13 04:24:50;;;;;;;4.30;3.25;;;;;;;14.09;51.00;98968.53;5044333;28;20337;-68
2023/06/13 04:27:19;;;;;;;4.65;3.58;;;;;;;14.11;51.11;98963.09;5045427;28;20045;-69
2023/06/13 04:29:48;;;;;;;6.68;3.25;;;;;;;14.16;50.66;98960.06;5045424;28;20061;-69
2023/06/13 04:32:17;;;;;;;5.45;3.15;;;;;;;14.23;50.65;98955.97;5045087;28;20302;-69
2023/06/13 04:34:52;;;;;;;5.28;3.40;;;;;;;14.18;51.59;98960.81;5044690;28;20049;-69
2023/06/13 04:37:25;;;;;;;4.35;3.33;;;;;;;14.18;51.52;98960.81;5045574;28;20038;-68
2023/06/13 04:39:52;;;;;;;4.88;3.50;;;;;;;14.22;50.79;98963.13;5044837;28;20103;-69
2023/06/13 04:42:24;;;;;;;6.88;6.10;;;;;;;14.14;51.97;98973.53;5045266;28;20316;-69
2023/06/13 04:44:53;;;;;;;6.95;5.00;;;;;;;14.20;52.13;98969.53;5045491;28;20033;-69
2023/06/13 04:47:21;;;;;;;5.50;4.60;;;;;;;14.23;51.82;98964.81;5044894;28;20076;-69
2023/06/13 04:49:51;;;;;;;5.43;4.55;;;;;;;14.24;52.35;98965.69;5045246;28;20045;-69
2023/06/13 04:52:18;;;;;;;5.47;4.43;;;;;;;14.20;52.13;98965.06;5044760;28;20091;-69
2023/06/13 04:54:45;;;;;;;5.28;4.03;;;;;;;14.31;51.76;98967.75;5047509;28;20068;-69
2023/06/13 04:57:13;;;;;;;7.60;3.83;;;;;;;14.30;51.67;98963.38;5048882;28;20064;-69
2023/06/13 04:59:40;;;;;;;6.90;3.90;;;;;;;14.25;52.08;98968.22;5048518;28;20041;-69
2023/06/13 05:02:07;;;;;;;7.07;4.03;;;;;;;14.34;51.72;98977.34;5048497;28;20052;-69
2023/06/13 05:04:33;;;;;;;5.63;3.58;;;;;;;14.39;51.13;98972.50;5048710;28;20045;-69
2023/06/13 05:07:02;;;;;;;5.07;3.58;;;;;;;13.55;51.53;98836.88;5048604;28;20041;-69
2023/06/13 05:09:29;;;;;;;4.93;4.05;;;;;;;14.38;51.32;98968.97;5047475;28;20057;-69
2023/06/13 05:11:55;;;;;;;4.78;3.55;;;;;;;14.42;51.25;98972.25;5048607;28;20045;-69
2023/06/13 05:14:22;;;;;;;5.45;3.58;;;;;;;14.36;51.92;98970.91;5048833;28;20041;-69
2023/06/13 05:16:49;;;;;;;4.28;3.35;;;;;;;14.42;52.15;98967.78;5047221;28;20289;-69
2023/06/13 05:19:17;;;;;;;4.63;3.72;;;;;;;14.44;51.28;98975.66;5048465;28;20049;-69
2023/06/13 05:21:44;;;;;;;10.27;4.63;;;;;;;14.02;51.01;98921.16;5047298;28;20124;-69
2023/06/13 05:24:13;;;;;;;4.90;2.90;;;;;;;14.45;50.48;98982.69;5048233;28;20060;-69
2023/06/13 05:26:39;;;;;;;6.22;3.50;;;;;;;14.51;50.31;98976.88;5048067;28;20038;-69
2023/06/13 05:29:07;;;;;;;5.25;3.22;;;;;;;14.51;50.97;98970.69;5048310;28;20045;-69
2023/06/13 05:31:34;;;;;;;5.47;3.55;;;;;;;14.58;50.69;98977.28;5048566;28;20112;-69
2023/06/13 05:34:01;;;;;;;3.55;2.78;;;;;;;14.66;49.86;98980.25;5047781;28;20067;-70
2023/06/13 05:36:28;;;;;;;5.85;3.60;;;;;;;14.62;50.31;98970.78;5046932;28;20301;-70
2023/06/13 05:38:55;;;;;;;7.05;3.53;;;;;;;14.76;50.45;98981.22;5047721;28;20083;-70
2023/06/13 05:41:23;;;;;;;5.45;3.38;;;;;;;14.86;50.64;98984.88;5047746;28;20096;-70
2023/06/13 05:43:50;;;;;;;6.45;3.55;;;;;;;14.88;50.08;98977.59;5047701;28;20041;-70
2023/06/13 05:46:17;;;;;;;4.43;3.53;;;;;;;14.89;50.35;98979.28;5047435;28;20096;-70
2023/06/13 05:48:43;;;;;;;7.00;3.80;;;;;;;14.94;50.65;98977.13;5048120;28;20103;-70
2023/06/13 05:51:10;;;;;;;4.82;3.65;;;;;;;14.96;49.97;98974.31;5046766;28;20103;-70
2023/06/13 05:53:37;;;;;;;5.03;3.80;;;;;;;14.99;49.87;98984.75;5048160;28;20185;-70
2023/06/13 05:56:04;;;;;;;8.05;3.50;;;;;;;15.05;49.10;98986.94;5047837;28;20049;-70
2023/06/13 05:58:32;;;;;;;4.65;3.10;;;;;;;15.04;49.94;98986.09;5047402;28;20048;-70
2023/06/13 06:01:00;;;;;;;8.15;3.15;;;;;;;15.05;49.53;98981.59;5047145;28;20037;-70
2023/06/13 06:03:26;;;;;;;6.38;3.63;;;;;;;15.11;49.20;98985.59;5046670;28;20052;-70
2023/06/13 06:05:53;;;;;;;7.97;3.70;;;;;;;15.00;49.09;98989.97;5046962;28;20042;-70
2023/06/13 06:08:20;;;;;;;6.70;3.50;;;;;;;14.98;49.05;98989.25;5047482;28;20309;-70
2023/06/13 06:10:47;;;;;;;4.28;3.33;;;;;;;15.01;49.37;98993.50;5047202;28;20053;-70
2023/06/13 06:13:14;;;;;;;5.95;3.63;;;;;;;15.07;48.71;98999.19;5047234;28;20041;-70
2023/06/13 06:15:42;;;;;;;9.70;5.18;;;;;;;15.12;48.66;98990.81;5046957;28;20033;-70
2023/06/13 06:18:09;;;;;;;4.45;3.88;;;;;;;15.16;49.12;98992.28;5047443;28;20053;-70
2023/06/13 06:20:36;;;;;;;5.93;3.83;;;;;;;15.13;49.21;98997.00;5046917;28;20048;-70
2023/06/13 06:23:02;;;;;;;5.38;4.43;;;;;;;15.22;49.67;98996.28;5047453;28;20109;-70
2023/06/13 06:25:29;;;;;;;5.70;3.65;;;;;;;15.26;49.74;98997.72;5046836;28;20049;-70
2023/06/13 06:27:56;;;;;;;4.15;3.55;;;;;;;15.19;49.14;98991.19;5047107;28;20317;-69
2023/06/13 06:30:23;;;;;;;9.23;4.63;;;;;;;15.31;49.50;99004.41;5045891;28;20041;-70
2023/06/13 06:32:51;;;;;;;5.82;3.28;;;;;;;15.40;48.36;99006.31;5047020;28;20312;-70
2023/06/13 06:35:18;;;;;;;6.00;4.18;;;;;;;15.48;48.00;98996.84;5046627;28;20410;-70
2023/06/13 06:37:45;;;;;;;5.47;3.50;;;;;;;15.17;47.45;98974.44;5046284;28;20038;-70
2023/06/13 06:40:12;;;;;;;4.15;2.72;;;;;;;15.38;47.62;99005.59;5047088;28;20281;-70
2023/06/13 06:42:40;;;;;;;4.90;3.33;;;;;;;15.17;47.68;98967.28;5046816;28;20037;-70
2023/06/13 06:45:09;;;;;;;6.35;4.13;;;;;;;15.46;48.25;98991.63;5047112;28;20037;-70
2023/06/13 06:47:36;;;;;;;4.32;3.53;;;;;;;15.60;48.26;98996.69;5046675;28;20310;-70
2023/06/13 06:50:05;;;;;;;5.30;3.83;;;;;;;15.68;47.95;98996.09;5047109;28;20049;-70
2023/06/13 06:52:32;;;;;;;9.43;3.97;;;;;;;15.71;47.85;98985.16;5046639;28;20072;-70
2023/06/13 06:54:59;;;;;;;6.20;3.40;;;;;;;15.82;48.60;98992.31;5045476;28;20052;-70
2023/06/13 06:57:26;;;;;;;4.32;3.33;;;;;;;15.82;48.33;98990.47;5045338;28;20045;-70
2023/06/13 06:59:53;;;;;;;5.07;3.85;;;;;;;15.89;48.52;98988.16;5046727;28;20051;-69
2023/06/13 07:02:20;;;;;;;6.10;3.50;;;;;;;16.00;48.46;98985.44;5046151;28;20064;-70
2023/06/13 07:04:47;;;;;;;6.85;3.70;;;;;;;16.10;48.56;98985.50;5046101;28;20249;-70
2023/06/13 07:07:15;;;;;;;12.95;3.58;;;;;;;16.18;48.49;98989.25;5046166;28;20042;-70
2023/06/13 07:09:42;;;;;;;5.32;3.63;;;;;;;16.36;48.65;98978.81;5046229;28;20049;-69
2023/06/13 07:12:09;;;;;;;6.65;3.83;;;;;;;16.45;48.54;98983.38;5044961;28;20033;-70
2023/06/13 07:14:36;;;;;;;4.47;3.50;;;;;;;16.53;49.05;98975.56;5046157;28;20060;-70
2023/06/13 07:17:03;;;;;;;6.43;3.65;;;;;;;15.93;48.71;98845.28;5045639;28;20083;-70
2023/06/13 07:19:30;;;;;;;6.70;4.28;;;;;;;16.93;48.35;98969.47;5045810;28;20174;-70
2023/06/13 07:21:56;;;;;;;6.07;3.40;;;;;;;16.57;47.49;98878.00;5046015;28;20048;-70
2023/06/13 07:24:24;;;;;;;5.10;3.83;;;;;;;17.21;47.14;98963.41;5045770;28;20103;-70
2023/06/13 07:26:51;;;;;;;4.88;3.70;;;;;;;17.47;46.64;98960.22;5044962;28;20038;-70
2023/06/13 07:29:18;;;;;;;4.82;3.35;;;;;;;17.69;46.94;98964.53;5045722;28;20104;-70
2023/06/13 07:31:45;;;;;;;6.63;3.72;;;;;;;17.81;46.15;98968.78;5046211;28;20059;-70
2023/06/13 07:34:11;;;;;;;11.82;3.85;;;;;;;17.83;45.26;98967.66;5046161;28;20048;-70
2023/06/13 07:36:38;;;;;;;7.20;4.05;;;;;;;18.03;44.48;98962.31;5045835;28;20037;-70
2023/06/13 07:39:12;;;;;;;7.90;4.00;;;;;;;18.19;43.92;98959.91;5045324;28;20107;-70
2023/06/13 07:41:40;;;;;;;4.63;3.78;;;;;;;18.10;43.82;98950.88;5045917;28;20045;-70
2023/06/13 07:44:07;;;;;;;7.40;5.35;;;;;;;18.27;44.04;98958.19;5044615;28;20278;-70
2023/06/13 07:46:34;;;;;;;6.28;4.45;;;;;;;18.55;43.20;98953.81;5045440;28;20048;-70
2023/06/13 07:49:01;;;;;;;7.55;4.78;;;;;;;18.68;42.30;98952.66;5045721;28;20053;-70
2023/06/13 07:51:27;;;;;;;5.82;4.63;;;;;;;18.71;42.17;98950.50;5045519;28;20049;-70
2023/06/13 07:53:54;;;;;;;5.88;4.35;;;;;;;18.70;41.32;98903.19;5045329;28;20041;-70
2023/06/13 07:56:21;;;;;;;6.57;4.80;;;;;;;19.09;41.26;98943.31;5045876;28;20065;-70
2023/06/13 07:58:49;;;;;;;4.97;3.88;;;;;;;19.29;39.95;98933.31;5045845;28;20087;-70
2023/06/13 08:01:16;;;;;;;4.10;3.30;;;;;;;19.42;39.50;98945.41;5044505;28;20037;-70
2023/06/13 08:03:45;;;;;;;5.82;3.85;;;;;;;19.56;38.92;98944.06;5045284;28;20052;-70
2023/06/13 08:06:11;;;;;;;6.00;3.60;;;;;;;19.59;39.00;98934.84;5045534;28;20091;-70
2023/06/13 08:08:38;;;;;;;6.47;3.60;;;;;;;19.74;39.74;98939.56;5045559;28;20091;-70
2023/06/13 08:11:05;;;;;;;6.13;3.47;;;;;;;19.67;39.52;98892.78;5045637;28;20056;-70
2023/06/13 08:13:32;;;;;;;4.50;3.00;;;;;;;19.59;39.01;98938.38;5045825;28;20112;-70
2023/06/13 08:16:01;;;;;;;6.13;3.47;;;;;;;19.88;38.93;98929.28;5044373;28;20095;-70
2023/06/13 08:18:28;;;;;;;4.70;3.00;;;;;;;19.98;38.53;98930.06;5045214;28;20053;-70
2023/06/13 08:20:54;;;;;;;3.60;2.42;;;;;;;19.93;38.55;98933.22;5045451;28;20197;-70
2023/06/13 08:23:21;;;;;;;4.63;2.80;;;;;;;20.26;37.50;98930.84;5045146;28;20056;-70
2023/06/13 08:25:48;;;;;;;6.28;3.22;;;;;;;20.49;37.09;98923.94;5044662;28;20051;-70
2023/06/13 08:28:15;;;;;;;6.57;3.38;;;;;;;20.56;36.39;98932.22;5045201;28;20253;-70
2023/06/13 08:30:42;;;;;;;3.50;2.67;;;;;;;20.40;36.49;98936.50;5049042;28;20240;-70
2023/06/13 08:33:11;;;;;;;5.82;3.13;;;;;;;20.42;35.40;98939.03;5049578;28;20111;-70
2023/06/13 08:35:38;;;;;;;4.30;3.22;;;;;;;20.15;36.49;98932.72;5049212;28;20091;-70
2023/06/13 08:38:05;;;;;;;4.70;3.13;;;;;;;20.16;35.53;98928.19;5049087;28;20049;-70
2023/06/13 08:40:32;;;;;;;6.82;3.28;;;;;;;20.55;36.57;98934.06;5048049;28;20386;-70
2023/06/13 08:43:00;;;;;;;7.95;2.97;;;;;;;20.22;35.23;98921.34;5048827;28;20348;-70
2023/06/13 08:45:27;;;;;;;5.13;2.97;;;;;;;20.09;34.02;98927.97;5049270;28;20064;-70
2023/06/13 08:47:55;;;;;;;5.22;3.22;;;;;;;20.32;35.31;98925.66;5048717;28;20201;-70
2023/06/13 08:50:26;;;;;;;4.18;2.97;;;;;;;20.31;35.29;98921.28;5047865;28;20037;-70
2023/06/13 08:52:54;;;;;;;5.93;3.35;;;;;;;20.36;35.46;98915.44;5048910;28;20037;-70
2023/06/13 08:55:23;;;;;;;5.47;2.67;;;;;;;20.13;33.74;98923.97;5049234;28;20196;-70
2023/06/13 08:57:53;;;;;;;3.88;2.65;;;;;;;20.50;33.90;98910.31;5047588;28;20041;-70
2023/06/13 09:00:22;;;;;;;4.07;2.83;;;;;;;20.40;34.14;98914.13;5048418;28;20112;-70
2023/06/13 09:02:50;;;;;;;3.70;2.65;;;;;;;18.64;34.08;98581.72;5048953;28;20048;-70
2023/06/13 09:05:18;;;;;;;5.28;3.00;;;;;;;21.02;34.47;98904.03;5048650;28;20250;-70
2023/06/13 09:07:46;;;;;;;5.05;3.03;;;;;;;21.21;33.73;98901.09;5048299;28;20068;-70
2023/06/13 09:10:14;;;;;;;4.18;2.97;;;;;;;21.22;32.66;98910.03;5048339;28;20223;-70
2023/06/13 09:12:43;;;;;;;4.57;3.28;;;;;;;21.09;32.55;98903.25;5048843;28;20174;-70
2023/06/13 09:15:11;;;;;;;5.20;3.08;;;;;;;21.33;32.28;98902.50;5048280;28;20049;-70
2023/06/13 09:17:38;;;;;;;4.75;3.20;;;;;;;21.55;31.09;98911.81;5047358;28;20038;-70
2023/06/13 09:20:08;;;;;;;8.07;3.35;;;;;;;21.66;30.29;98902.56;5048140;28;20052;-70
2023/06/13 09:22:36;;;;;;;5.78;3.47;;;;;;;21.20;28.45;98855.47;5048664;28;20170;-70
2023/06/13 09:25:05;;;;;;;8.65;3.05;;;;;;;21.52;29.82;98897.81;5048583;28;20034;-70
2023/06/13 09:27:32;;;;;;;6.43;3.58;;;;;;;21.40;30.22;98902.69;5048014;28;20091;-70
2023/06/13 09:29:59;;;;;;;6.55;3.90;;;;;;;21.53;30.32;98897.66;5048025;28;20060;-70
2023/06/13 09:32:26;;;;;;;4.65;3.55;;;;;;;21.13;30.80;98791.44;5048332;28;20051;-71
2023/06/13 09:34:52;;;;;;;5.15;3.40;;;;;;;19.92;29.91;98533.53;5048170;28;20196;-70
2023/06/13 09:37:19;;;;;;;5.18;3.28;;;;;;;21.92;29.17;98908.72;5046899;28;20217;-70
2023/06/13 09:39:50;;;;;;;4.18;3.10;;;;;;;20.98;29.82;98749.97;5047201;28;20061;-70
2023/06/13 09:42:22;;;;;;;5.22;2.63;;;;;;;21.72;29.44;98893.81;5047382;28;20088;-70
2023/06/13 09:44:50;;;;;;;4.05;2.80;;;;;;;21.69;29.50;98891.47;5047817;28;20064;-70
2023/06/13 09:47:22;;;;;;;5.90;3.38;;;;;;;21.17;29.78;98832.38;5048180;28;20037;-70
2023/06/13 09:49:52;;;;;;;5.22;3.40;;;;;;;21.12;29.47;98807.78;5048127;28;20041;-70
2023/06/13 09:52:23;;;;;;;5.07;3.33;;;;;;;22.01;29.45;98894.22;5047647;28;20064;-70
2023/06/13 09:54:51;;;;;;;3.97;2.90;;;;;;;21.95;29.12;98891.34;5047424;28;20037;-69
2023/06/13 09:57:18;;;;;;;3.78;2.88;;;;;;;22.01;29.15;98888.81;5047396;28;20104;-69
2023/06/13 09:59:46;;;;;;;5.75;2.80;;;;;;;21.70;29.02;98863.47;5047303;28;20221;-69
2023/06/13 10:02:13;;;;;;;4.47;2.80;;;;;;;21.79;29.45;98881.34;5047910;28;20343;-69
2023/06/13 10:04:41;;;;;;;5.15;3.22;;;;;;;22.06;29.62;98877.50;5046422;28;20100;-69
2023/06/13 10:07:08;;;;;;;6.00;3.22;;;;;;;21.84;29.49;98878.19;5047608;28;20221;-70
2023/06/13 10:09:34;;;;;;;6.95;2.95;;;;;;;21.54;30.02;98852.69;5047475;28;20045;-70
2023/06/13 10:12:03;;;;;;;5.00;2.72;;;;;;;21.99;29.02;98879.19;5047401;28;20320;-70
2023/06/13 10:14:33;;;;;;;7.00;5.45;;;;;;;21.78;28.54;98844.59;5046289;28;20313;-70
2023/06/13 10:17:07;;;;;;;8.10;4.53;;;;;;;22.12;27.85;98867.91;5047281;28;20045;-70
2023/06/13 10:19:34;;;;;;;;;;;;;;;22.19;28.30;98874.31;5047370;28;20057;-70
2023/06/13 10:22:02;;;;;;;4.72;3.35;;;;;;;22.23;28.50;98862.16;5047449;28;19971;-69
2023/06/13 10:24:30;;;;;;;3.45;2.70;;;;;;;21.75;28.72;98864.66;5047122;28;20059;-69
2023/06/13 10:27:00;;;;;;;4.60;2.55;;;;;;;21.74;28.78;98854.03;5047087;28;20046;-70
2023/06/13 10:30:23;;;;;;;4.10;2.60;;;;;;;21.77;29.37;98857.25;5047050;28;20053;-70
2023/06/13 10:33:10;;;;;;;3.45;2.42;;;;;;;22.00;29.15;98849.34;4969264;28;20051;-70
2023/06/13 10:35:54;;;;;;;4.60;2.95;;;;;;;21.99;30.02;98852.22;4986831;28;20051;-70
2023/06/13 10:38:48;;;;;;;;;;;;;;;22.14;29.16;98845.13;5028447;28;20072;-69
2023/06/13 10:41:43;;;;;;;5.25;2.75;;;;;;;21.86;29.21;98820.38;5000333;28;19917;-70
2023/06/13 10:44:16;;;;;;;4.00;2.75;;;;;;;22.13;27.83;98843.44;5045508;28;20041;-70
2023/06/13 10:46:44;;;;;;;5.03;2.93;;;;;;;22.30;28.14;98838.88;5045309;28;20049;-70
2023/06/13 10:49:16;;;;;;;6.00;2.85;;;;;;;22.32;28.03;98845.78;5046583;28;20105;-70
2023/06/13 10:51:44;;;;;;;6.55;3.28;;;;;;;21.67;28.67;98702.00;5046132;28;20140;-70
2023/06/13 10:54:12;;;;;;;3.55;2.80;;;;;;;21.79;28.59;98743.78;5046397;28;20186;-70
2023/06/13 10:56:42;;;;;;;3.95;3.03;;;;;;;22.20;29.08;98806.66;5046435;28;20072;-69
2023/06/13 10:59:10;;;;;;;4.13;3.13;;;;;;;22.51;28.85;98831.09;5045157;28;20324;-70
2023/06/13 11:01:38;;;;;;;5.30;2.80;;;;;;;22.49;28.90;98803.41;5045963;28;20045;-69
2023/06/13 11:04:12;;;;;;;5.38;2.90;;;;;;;21.94;29.44;98755.59;5046370;28;20104;-70
2023/06/13 11:06:41;;;;;;;5.22;3.35;;;;;;;22.62;28.46;98825.34;5046055;28;20220;-69
2023/06/13 11:09:19;;;;;;;5.35;3.20;;;;;;;22.79;28.43;98820.72;5046222;28;20308;-70
2023/06/13 11:11:48;;;;;;;4.93;2.90;;;;;;;22.82;28.09;98828.47;5046262;28;20319;-69
2023/06/13 11:14:14;;;;;;;5.22;3.15;;;;;;;22.40;28.52;98835.00;5045905;28;20091;-70
2023/06/13 11:16:43;;;;;;;4.88;2.72;;;;;;;22.27;29.05;98831.94;5045884;28;20045;-70
2023/06/13 11:19:13;;;;;;;4.38;2.72;;;;;;;22.68;28.58;98815.69;5046245;28;20063;-70
2023/06/13 11:21:44;;;;;;;6.00;3.20;;;;;;;22.81;28.15;98809.72;5045059;28;20048;-69
2023/06/13 11:24:14;;;;;;;4.82;2.90;;;;;;;22.65;28.67;98805.25;5044841;28;20274;-69
2023/06/13 11:26:42;;;;;;;8.02;3.08;;;;;;;22.78;28.55;98800.13;5046250;28;20041;-69
2023/06/13 11:29:10;;;;;;;7.55;3.33;;;;;;;22.98;27.57;98789.72;5045597;28;20037;-69
2023/06/13 11:31:39;;;;;;;4.82;3.40;;;;;;;23.03;26.99;98803.53;5046248;28;20103;-70
2023/06/13 11:34:08;;;;;;;5.93;2.97;;;;;;;22.93;26.11;98806.47;5045890;28;20045;-70
2023/06/13 11:36:41;;;;;;;4.25;3.10;;;;;;;22.79;26.43;98800.97;5045633;28;20252;-70
2023/06/13 11:39:13;;;;;;;5.10;2.60;;;;;;;22.76;26.35;98795.91;5045206;28;20057;-70